createdAt,value
2018-02-07T00:00:38.690Z,81.52
2018-02-07T00:01:38.760Z,81.56
2018-02-07T00:02:38.694Z,81.52
2018-02-07T00:03:38.761Z,81.66
2018-02-07T00:04:38.694Z,81.76
2018-02-07T00:05:38.762Z,81.82
2018-02-07T00:06:38.695Z,81.74
2018-02-07T00:07:38.702Z,81.58
2018-02-07T00:08:38.765Z,81.71
2018-02-07T00:09:38.700Z,81.42
2018-02-07T00:10:38.767Z,81.13
2018-02-07T00:11:38.700Z,81.24
2018-02-07T00:12:38.767Z,81.52
2018-02-07T00:13:38.765Z,81.60
2018-02-07T00:14:38.700Z,81.84
2018-02-07T00:15:38.773Z,82.35
2018-02-07T00:16:38.772Z,82.67
2018-02-07T00:17:38.704Z,82.82
2018-02-07T00:18:38.769Z,82.88
2018-02-07T00:19:38.770Z,82.96
2018-02-07T00:20:38.738Z,83.01
2018-02-07T00:21:38.704Z,83.06
2018-02-07T00:22:38.771Z,83.01
2018-02-07T00:23:38.772Z,83.01
2018-02-07T00:24:38.712Z,82.96
2018-02-07T00:25:38.766Z,82.90
2018-02-07T00:26:38.758Z,82.93
2018-02-07T00:27:38.860Z,83.14
2018-02-07T00:28:38.682Z,83.14
2018-02-07T00:29:38.679Z,83.33
2018-02-07T00:30:38.762Z,83.40
2018-02-07T00:31:38.774Z,83.33
2018-02-07T00:32:38.780Z,83.28
2018-02-07T00:33:38.679Z,83.30
2018-02-07T00:34:38.674Z,83.40
2018-02-07T00:35:38.713Z,83.38
2018-02-07T00:36:38.678Z,83.36
2018-02-07T00:37:38.677Z,83.38
2018-02-07T00:38:38.772Z,83.38
2018-02-07T00:39:38.771Z,83.38
2018-02-07T00:40:38.687Z,83.40
2018-02-07T00:41:38.733Z,83.46
2018-02-07T00:42:38.739Z,83.38
2018-02-07T00:43:38.741Z,83.38
2018-02-07T00:44:38.739Z,83.09
2018-02-07T00:45:38.773Z,82.90
2018-02-07T00:46:38.683Z,82.59
2018-02-07T00:47:38.651Z,82.61
2018-02-07T00:48:38.651Z,82.80
2018-02-07T00:49:38.720Z,82.88
2018-02-07T00:50:38.754Z,83.12
2018-02-07T00:51:38.724Z,83.12
2018-02-07T00:52:38.778Z,83.04
2018-02-07T00:53:38.727Z,82.98
2018-02-07T00:54:38.788Z,82.88
2018-02-07T00:55:38.698Z,83.01
2018-02-07T00:56:38.780Z,83.01
2018-02-07T00:57:38.683Z,83.09
2018-02-07T00:58:38.784Z,83.14
2018-02-07T00:59:38.784Z,83.06
2018-02-07T01:00:38.719Z,83.20
2018-02-07T01:01:38.794Z,83.40
2018-02-07T01:02:38.665Z,84.17
2018-02-07T01:03:38.755Z,84.44
2018-02-07T01:04:38.704Z,84.34
2018-02-07T01:05:38.802Z,84.36
2018-02-07T01:06:38.716Z,84.55
2018-02-07T01:07:38.789Z,84.84
2018-02-07T01:08:38.726Z,84.84
2018-02-07T01:09:38.795Z,84.50
2018-02-07T01:10:38.755Z,83.67
2018-02-07T01:11:38.707Z,83.12
2018-02-07T01:12:38.709Z,82.69
2018-02-07T01:13:38.674Z,82.51
2018-02-07T01:14:38.709Z,82.96
2018-02-07T01:15:38.796Z,82.53
2018-02-07T01:16:38.765Z,82.14
2018-02-07T01:17:38.796Z,82.00
2018-02-07T01:18:38.744Z,82.08
2018-02-07T01:19:38.728Z,82.43
2018-02-07T01:20:38.714Z,82.67
2018-02-07T01:21:38.802Z,83.09
2018-02-07T01:22:38.710Z,83.09
2018-02-07T01:23:38.735Z,82.77
2018-02-07T01:24:38.812Z,82.53
2018-02-07T01:25:38.746Z,82.37
2018-02-07T01:26:38.750Z,82.61
2018-02-07T01:27:38.814Z,82.75
2018-02-07T01:28:38.751Z,82.88
2018-02-07T01:29:38.814Z,82.96
2018-02-07T01:30:38.750Z,83.01
2018-02-07T01:31:38.815Z,82.51
2018-02-07T01:32:38.752Z,82.40
2018-02-07T01:33:38.816Z,82.45
2018-02-07T01:34:38.877Z,82.35
2018-02-07T01:35:38.738Z,81.98
2018-02-07T01:36:38.740Z,81.79
2018-02-07T01:37:38.735Z,82.08
2018-02-07T01:38:38.811Z,82.32
2018-02-07T01:39:38.742Z,82.48
2018-02-07T01:40:38.695Z,82.48
2018-02-07T01:41:38.740Z,82.35
2018-02-07T01:42:38.782Z,81.98
2018-02-07T01:43:38.823Z,81.60
2018-02-07T01:44:38.758Z,81.74
2018-02-07T01:45:38.884Z,81.95
2018-02-07T01:46:38.826Z,82.06
2018-02-07T01:47:38.822Z,82.27
2018-02-07T01:48:38.766Z,82.37
2018-02-07T01:49:38.828Z,82.40
2018-02-07T01:50:38.763Z,82.35
2018-02-07T01:51:38.836Z,82.53
2018-02-07T01:52:38.719Z,82.88
2018-02-07T01:53:38.764Z,83.14
2018-02-07T01:54:38.768Z,83.36
2018-02-07T01:55:38.758Z,83.06
2018-02-07T01:56:38.783Z,82.56
2018-02-07T01:57:38.700Z,82.40
2018-02-07T01:58:38.764Z,82.56
2018-02-07T01:59:38.782Z,82.67
2018-02-07T02:00:38.765Z,82.29
2018-02-07T02:01:38.726Z,82.29
2018-02-07T02:02:38.706Z,82.51
2018-02-07T02:03:38.814Z,82.64
2018-02-07T02:04:38.733Z,82.64
2018-02-07T02:05:38.725Z,82.80
2018-02-07T02:06:38.789Z,82.96
2018-02-07T02:07:38.762Z,83.06
2018-02-07T02:08:38.827Z,83.04
2018-02-07T02:09:38.743Z,83.01
2018-02-07T02:10:38.780Z,83.12
2018-02-07T02:11:38.722Z,83.28
2018-02-07T02:12:38.831Z,83.78
2018-02-07T02:13:38.744Z,84.20
2018-02-07T02:14:38.843Z,84.42
2018-02-07T02:15:38.841Z,84.42
2018-02-07T02:16:38.823Z,84.50
2018-02-07T02:17:38.842Z,84.39
2018-02-07T02:18:38.798Z,84.36
2018-02-07T02:19:38.775Z,84.23
2018-02-07T02:20:38.847Z,84.34
2018-02-07T02:21:38.843Z,84.55
2018-02-07T02:22:38.783Z,85.11
2018-02-07T02:23:38.867Z,85.43
2018-02-07T02:24:38.839Z,84.79
2018-02-07T02:25:38.770Z,84.42
2018-02-07T02:26:38.740Z,84.31
2018-02-07T02:27:38.839Z,84.12
2018-02-07T02:28:38.839Z,84.05
2018-02-07T02:29:38.841Z,84.60
2018-02-07T02:30:38.846Z,84.05
2018-02-07T02:31:38.846Z,83.75
2018-02-07T02:32:38.759Z,83.78
2018-02-07T02:33:38.758Z,83.91
2018-02-07T02:34:38.851Z,84.12
2018-02-07T02:35:38.807Z,84.28
2018-02-07T02:36:38.790Z,84.50
2018-02-07T02:37:38.855Z,84.50
2018-02-07T02:38:38.792Z,84.42
2018-02-07T02:39:38.854Z,84.23
2018-02-07T02:40:38.795Z,84.31
2018-02-07T02:41:38.942Z,84.47
2018-02-07T02:42:38.858Z,84.50
2018-02-07T02:43:38.791Z,84.36
2018-02-07T02:44:38.857Z,84.50
2018-02-07T02:45:38.855Z,84.71
2018-02-07T02:46:38.793Z,84.71
2018-02-07T02:47:38.859Z,84.68
2018-02-07T02:48:38.791Z,85.05
2018-02-07T02:49:38.863Z,85.27
2018-02-07T02:50:38.794Z,85.27
2018-02-07T02:51:38.859Z,85.50
2018-02-07T02:52:38.859Z,85.61
2018-02-07T02:53:38.799Z,85.75
2018-02-07T02:54:38.800Z,85.75
2018-02-07T02:55:38.822Z,84.71
2018-02-07T02:56:38.865Z,84.36
2018-02-07T02:57:38.808Z,84.15
2018-02-07T02:58:38.868Z,84.34
2018-02-07T02:59:38.802Z,84.58
2018-02-07T03:00:38.805Z,84.74
2018-02-07T03:01:38.807Z,84.71
2018-02-07T03:02:38.871Z,84.50
2018-02-07T03:03:38.801Z,84.50
2018-02-07T03:04:38.869Z,84.28
2018-02-07T03:05:38.875Z,84.23
2018-02-07T03:06:38.896Z,84.02
2018-02-07T03:07:38.875Z,84.02
2018-02-07T03:08:38.872Z,84.15
2018-02-07T03:09:38.875Z,84.23
2018-02-07T03:10:38.810Z,84.31
2018-02-07T03:11:38.878Z,84.34
2018-02-07T03:12:38.811Z,84.47
2018-02-07T03:13:38.877Z,84.60
2018-02-07T03:14:38.876Z,84.63
2018-02-07T03:15:38.814Z,84.76
2018-02-07T03:16:38.878Z,84.97
2018-02-07T03:17:38.812Z,85.16
2018-02-07T03:18:38.876Z,85.75
2018-02-07T03:19:47.215Z,85.75
2018-02-07T03:20:38.882Z,85.80
2018-02-07T03:21:38.882Z,85.91
2018-02-07T03:22:38.838Z,86.12
2018-02-07T03:23:38.817Z,86.41
2018-02-07T03:24:38.815Z,86.68
2018-02-07T03:25:38.946Z,87.05
2018-02-07T03:26:38.802Z,87.40
2018-02-07T03:27:38.875Z,87.80
2018-02-07T03:28:38.771Z,88.04
2018-02-07T03:29:38.802Z,88.28
2018-02-07T03:30:38.878Z,88.36
2018-02-07T03:31:38.877Z,88.50
2018-02-07T03:32:38.816Z,88.54
2018-02-07T03:33:38.792Z,88.65
2018-02-07T03:34:38.847Z,88.71
2018-02-07T03:35:38.876Z,88.76
2018-02-07T03:36:38.788Z,88.76
2018-02-07T03:37:38.873Z,88.71
2018-02-07T03:38:38.830Z,88.62
2018-02-07T03:39:38.880Z,88.60
2018-02-07T03:40:38.869Z,88.62
2018-02-07T03:41:38.819Z,88.62
2018-02-07T03:42:38.824Z,88.62
2018-02-07T03:43:38.759Z,88.54
2018-02-07T03:44:38.824Z,88.50
2018-02-07T03:45:38.821Z,88.50
2018-02-07T03:46:38.768Z,88.62
2018-02-07T03:47:38.888Z,88.76
2018-02-07T03:48:38.831Z,88.89
2018-02-07T03:49:38.883Z,88.97
2018-02-07T03:50:38.859Z,88.97
2018-02-07T03:51:38.893Z,88.87
2018-02-07T03:52:38.786Z,88.92
2018-02-07T03:53:38.827Z,88.89
2018-02-07T03:54:38.832Z,88.81
2018-02-07T03:55:38.839Z,88.84
2018-02-07T03:56:38.900Z,88.95
2018-02-07T03:57:38.836Z,89.08
2018-02-07T03:58:38.905Z,89.37
2018-02-07T03:59:38.905Z,89.51
2018-02-07T04:00:38.843Z,89.56
2018-02-07T04:01:38.905Z,89.64
2018-02-07T04:02:38.862Z,89.80
2018-02-07T04:03:38.904Z,89.91
2018-02-07T04:04:38.910Z,90.05
2018-02-07T04:05:38.840Z,90.20
2018-02-07T04:06:38.842Z,90.45
2018-02-07T04:07:38.907Z,90.63
2018-02-07T04:08:38.845Z,90.80
2018-02-07T04:09:38.840Z,90.85
2018-02-07T04:10:38.844Z,90.82
2018-02-07T04:11:38.910Z,90.88
2018-02-07T04:12:38.914Z,91.09
2018-02-07T04:13:38.917Z,91.22
2018-02-07T04:14:38.849Z,91.47
2018-02-07T04:15:38.821Z,91.57
2018-02-07T04:16:38.862Z,91.63
2018-02-07T04:17:38.817Z,91.63
2018-02-07T04:18:38.816Z,91.65
2018-02-07T04:19:38.769Z,91.79
2018-02-07T04:20:38.821Z,91.82
2018-02-07T04:21:38.862Z,91.84
2018-02-07T04:22:38.822Z,91.79
2018-02-07T04:23:38.872Z,91.82
2018-02-07T04:24:38.771Z,91.90
2018-02-07T04:25:38.922Z,91.92
2018-02-07T04:26:38.856Z,91.86
2018-02-07T04:27:38.921Z,91.84
2018-02-07T04:28:38.856Z,91.84
2018-02-07T04:29:38.921Z,91.90
2018-02-07T04:30:38.936Z,91.79
2018-02-07T04:31:38.853Z,91.68
2018-02-07T04:32:38.936Z,91.63
2018-02-07T04:33:38.863Z,91.49
2018-02-07T04:34:38.859Z,91.28
2018-02-07T04:35:38.908Z,91.14
2018-02-07T04:36:38.879Z,90.98
2018-02-07T04:37:38.849Z,90.74
2018-02-07T04:38:38.816Z,90.69
2018-02-07T04:39:38.913Z,90.71
2018-02-07T04:40:38.824Z,90.63
2018-02-07T04:41:38.859Z,90.55
2018-02-07T04:42:38.917Z,90.50
2018-02-07T04:43:38.882Z,90.47
2018-02-07T04:44:38.916Z,90.58
2018-02-07T04:45:38.838Z,90.69
2018-02-07T04:46:38.892Z,90.69
2018-02-07T04:47:38.836Z,90.71
2018-02-07T04:48:38.852Z,90.74
2018-02-07T04:49:38.836Z,90.77
2018-02-07T04:50:38.929Z,90.82
2018-02-07T04:51:38.932Z,90.74
2018-02-07T04:52:38.840Z,90.74
2018-02-07T04:53:38.837Z,90.69
2018-02-07T04:54:38.934Z,90.69
2018-02-07T04:55:38.892Z,90.63
2018-02-07T04:56:38.855Z,90.47
2018-02-07T04:57:38.930Z,90.50
2018-02-07T04:58:38.879Z,90.34
2018-02-07T04:59:38.927Z,90.39
2018-02-07T05:00:38.840Z,90.50
2018-02-07T05:01:38.930Z,90.47
2018-02-07T05:02:38.846Z,90.47
2018-02-07T05:03:38.930Z,90.58
2018-02-07T05:04:38.845Z,90.66
2018-02-07T05:05:38.896Z,90.85
2018-02-07T05:06:38.869Z,90.98
2018-02-07T05:07:38.938Z,91.09
2018-02-07T05:08:38.931Z,91.25
2018-02-07T05:09:38.939Z,91.33
2018-02-07T05:10:38.873Z,91.44
2018-02-07T05:11:38.853Z,91.60
2018-02-07T05:12:38.946Z,91.73
2018-02-07T05:13:38.852Z,91.90
2018-02-07T05:14:38.904Z,91.90
2018-02-07T05:15:38.883Z,92.05
2018-02-07T05:16:38.885Z,92.19
2018-02-07T05:17:38.954Z,92.35
2018-02-07T05:18:38.949Z,92.40
2018-02-07T05:19:38.952Z,92.51
2018-02-07T05:20:38.886Z,92.43
2018-02-07T05:21:38.952Z,92.35
2018-02-07T05:22:38.910Z,92.40
2018-02-07T05:23:38.973Z,92.40
2018-02-07T05:24:38.837Z,92.40
2018-02-07T05:25:38.957Z,92.43
2018-02-07T05:26:38.957Z,92.32
2018-02-07T05:27:38.958Z,92.30
2018-02-07T05:28:38.986Z,92.30
2018-02-07T05:29:38.960Z,92.22
2018-02-07T05:30:38.903Z,92.19
2018-02-07T05:31:38.960Z,92.19
2018-02-07T05:32:38.961Z,92.16
2018-02-07T05:33:38.931Z,92.16
2018-02-07T05:34:38.965Z,92.16
2018-02-07T05:35:38.919Z,92.22
2018-02-07T05:36:38.860Z,92.30
2018-02-07T05:37:38.953Z,92.30
2018-02-07T05:38:38.899Z,92.32
2018-02-07T05:39:38.964Z,92.30
2018-02-07T05:40:38.914Z,92.22
2018-02-07T05:41:38.961Z,92.22
2018-02-07T05:42:38.900Z,92.05
2018-02-07T05:43:38.965Z,92.05
2018-02-07T05:44:38.904Z,92.08
2018-02-07T05:45:38.974Z,92.24
2018-02-07T05:46:38.930Z,92.27
2018-02-07T05:47:38.927Z,92.16
2018-02-07T05:48:38.904Z,91.97
2018-02-07T05:49:38.910Z,91.95
2018-02-07T05:50:38.908Z,91.95
2018-02-07T05:51:38.972Z,91.90
2018-02-07T05:52:38.974Z,91.86
2018-02-07T05:53:38.911Z,91.90
2018-02-07T05:54:38.974Z,91.95
2018-02-07T05:55:38.910Z,91.92
2018-02-07T05:56:38.862Z,91.86
2018-02-07T05:57:38.974Z,91.79
2018-02-07T05:58:38.913Z,91.76
2018-02-07T05:59:38.981Z,91.65
2018-02-07T06:00:38.913Z,91.63
2018-02-07T06:01:38.977Z,91.68
2018-02-07T06:02:38.918Z,91.71
2018-02-07T06:03:38.909Z,91.71
2018-02-07T06:04:38.982Z,91.71
2018-02-07T06:05:38.879Z,91.76
2018-02-07T06:06:38.831Z,91.86
2018-02-07T06:07:38.839Z,91.86
2018-02-07T06:08:38.927Z,92.01
2018-02-07T06:09:38.923Z,92.05
2018-02-07T06:10:38.883Z,92.19
2018-02-07T06:11:38.882Z,92.22
2018-02-07T06:12:38.886Z,92.08
2018-02-07T06:13:38.886Z,92.05
2018-02-07T06:14:38.886Z,92.03
2018-02-07T06:15:38.890Z,91.97
2018-02-07T06:16:38.891Z,91.84
2018-02-07T06:17:38.979Z,91.76
2018-02-07T06:18:38.983Z,91.84
2018-02-07T06:19:38.973Z,91.92
2018-02-07T06:20:38.986Z,92.05
2018-02-07T06:21:38.977Z,92.19
2018-02-07T06:22:38.977Z,92.32
2018-02-07T06:23:38.989Z,92.46
2018-02-07T06:24:38.909Z,92.51
2018-02-07T06:25:38.994Z,92.54
2018-02-07T06:26:38.991Z,92.57
2018-02-07T06:27:38.953Z,92.68
2018-02-07T06:28:38.885Z,92.70
2018-02-07T06:29:38.926Z,92.62
2018-02-07T06:30:38.999Z,92.65
2018-02-07T06:31:38.926Z,92.57
2018-02-07T06:32:38.994Z,92.57
2018-02-07T06:33:38.931Z,92.46
2018-02-07T06:34:39.000Z,92.38
2018-02-07T06:35:38.956Z,92.16
2018-02-07T06:36:38.954Z,92.14
2018-02-07T06:37:38.897Z,92.01
2018-02-07T06:38:38.862Z,91.90
2018-02-07T06:39:38.867Z,91.95
2018-02-07T06:40:38.869Z,91.90
2018-02-07T06:41:38.875Z,91.86
2018-02-07T06:42:38.870Z,91.90
2018-02-07T06:43:38.866Z,91.92
2018-02-07T06:44:38.879Z,91.92
2018-02-07T06:45:38.994Z,91.90
2018-02-07T06:46:38.935Z,91.95
2018-02-07T06:47:38.941Z,92.05
2018-02-07T06:48:38.940Z,92.05
2018-02-07T06:49:38.994Z,92.03
2018-02-07T06:50:38.874Z,92.08
2018-02-07T06:51:38.868Z,92.11
2018-02-07T06:52:38.990Z,92.16
2018-02-07T06:53:38.995Z,92.05
2018-02-07T06:54:38.995Z,91.92
2018-02-07T06:55:38.928Z,91.71
2018-02-07T06:56:39.000Z,91.65
2018-02-07T06:57:38.938Z,91.55
2018-02-07T06:58:39.002Z,91.38
2018-02-07T06:59:38.913Z,91.41
2018-02-07T07:00:38.935Z,91.44
2018-02-07T07:01:39.032Z,91.60
2018-02-07T07:02:39.001Z,91.68
2018-02-07T07:03:38.903Z,91.65
2018-02-07T07:04:38.934Z,91.60
2018-02-07T07:05:39.108Z,91.63
2018-02-07T07:06:38.948Z,91.63
2018-02-07T07:07:39.045Z,91.60
2018-02-07T07:08:39.015Z,91.76
2018-02-07T07:09:39.020Z,91.84
2018-02-07T07:10:39.017Z,91.86
2018-02-07T07:11:39.021Z,91.79
2018-02-07T07:12:38.960Z,91.84
2018-02-07T07:13:39.066Z,91.82
2018-02-07T07:14:38.956Z,91.86
2018-02-07T07:15:38.849Z,91.90
2018-02-07T07:16:38.961Z,91.82
2018-02-07T07:17:38.883Z,91.97
2018-02-07T07:18:38.945Z,92.01
2018-02-07T07:19:38.887Z,91.95
2018-02-07T07:20:38.931Z,91.92
2018-02-07T07:21:38.903Z,91.97
2018-02-07T07:22:38.893Z,92.03
2018-02-07T07:23:38.910Z,91.97
2018-02-07T07:24:38.870Z,91.86
2018-02-07T07:25:38.980Z,91.60
2018-02-07T07:26:39.025Z,91.38
2018-02-07T07:27:38.976Z,91.14
2018-02-07T07:28:39.029Z,90.80
2018-02-07T07:29:39.054Z,90.47
2018-02-07T07:30:38.965Z,90.20
2018-02-07T07:31:39.030Z,89.99
2018-02-07T07:32:38.962Z,89.94
2018-02-07T07:33:39.033Z,90.07
2018-02-07T07:34:38.961Z,90.18
2018-02-07T07:35:38.962Z,90.36
2018-02-07T07:36:38.961Z,90.36
2018-02-07T07:37:39.047Z,89.80
2018-02-07T07:38:38.958Z,89.48
2018-02-07T07:39:39.030Z,89.37
2018-02-07T07:40:38.966Z,89.27
2018-02-07T07:41:38.964Z,89.22
2018-02-07T07:42:38.949Z,89.24
2018-02-07T07:43:39.035Z,89.14
2018-02-07T07:44:38.903Z,89.22
2018-02-07T07:45:38.964Z,89.35
2018-02-07T07:46:38.942Z,89.45
2018-02-07T07:47:38.946Z,89.54
2018-02-07T07:48:38.914Z,89.62
2018-02-07T07:49:38.859Z,89.67
2018-02-07T07:50:38.974Z,89.64
2018-02-07T07:51:38.967Z,89.45
2018-02-07T07:52:38.912Z,89.16
2018-02-07T07:53:38.947Z,88.84
2018-02-07T07:54:38.908Z,88.89
2018-02-07T07:55:39.256Z,88.81
2018-02-07T07:56:38.979Z,88.81
2018-02-07T07:57:38.935Z,88.65
2018-02-07T07:58:38.976Z,88.62
2018-02-07T07:59:39.047Z,88.87
2018-02-07T08:00:38.988Z,89.03
2018-02-07T08:01:38.983Z,89.06
2018-02-07T08:02:39.051Z,89.24
2018-02-07T08:03:38.978Z,89.14
2018-02-07T08:04:39.051Z,89.03
2018-02-07T08:05:39.004Z,88.97
2018-02-07T08:06:39.051Z,88.79
2018-02-07T08:07:38.988Z,88.79
2018-02-07T08:08:39.052Z,88.81
2018-02-07T08:09:38.990Z,89.03
2018-02-07T08:10:39.051Z,89.00
2018-02-07T08:11:39.000Z,88.76
2018-02-07T08:12:39.058Z,88.73
2018-02-07T08:13:39.055Z,88.60
2018-02-07T08:14:39.061Z,88.12
2018-02-07T08:15:38.993Z,87.72
2018-02-07T08:16:39.017Z,87.45
2018-02-07T08:17:39.056Z,87.34
2018-02-07T08:18:39.024Z,87.32
2018-02-07T08:19:38.995Z,87.32
2018-02-07T08:20:39.057Z,87.56
2018-02-07T08:21:39.070Z,87.59
2018-02-07T08:22:38.994Z,87.43
2018-02-07T08:23:39.063Z,87.40
2018-02-07T08:24:38.993Z,87.45
2018-02-07T08:25:39.063Z,87.24
2018-02-07T08:26:39.061Z,87.40
2018-02-07T08:27:39.061Z,87.40
2018-02-07T08:28:39.001Z,87.26
2018-02-07T08:29:39.064Z,87.02
2018-02-07T08:30:38.999Z,87.18
2018-02-07T08:31:39.067Z,87.32
2018-02-07T08:32:39.004Z,87.59
2018-02-07T08:33:39.069Z,87.53
2018-02-07T08:34:39.001Z,87.59
2018-02-07T08:35:38.919Z,87.48
2018-02-07T08:36:38.967Z,87.67
2018-02-07T08:37:38.962Z,87.85
2018-02-07T08:38:38.924Z,87.40
2018-02-07T08:39:39.001Z,87.24
2018-02-07T08:40:39.016Z,86.73
2018-02-07T08:41:39.015Z,86.30
2018-02-07T08:42:39.018Z,86.30
2018-02-07T08:43:39.021Z,86.28
2018-02-07T08:44:38.925Z,86.28
2018-02-07T08:45:39.077Z,86.28
2018-02-07T08:46:38.981Z,86.65
2018-02-07T08:47:38.980Z,86.46
2018-02-07T08:48:38.981Z,86.44
2018-02-07T08:49:39.109Z,86.38
2018-02-07T08:50:39.045Z,86.38
2018-02-07T08:51:39.044Z,86.65
2018-02-07T08:52:39.026Z,86.91
2018-02-07T08:53:38.982Z,86.09
2018-02-07T08:54:39.062Z,85.58
2018-02-07T08:55:39.056Z,85.66
2018-02-07T08:56:38.948Z,85.61
2018-02-07T08:57:39.065Z,85.53
2018-02-07T08:58:39.008Z,85.46
2018-02-07T08:59:39.068Z,85.00
2018-02-07T09:00:39.034Z,85.03
2018-02-07T09:01:38.981Z,85.03
2018-02-07T09:02:39.045Z,85.56
2018-02-07T09:03:39.009Z,85.66
2018-02-07T09:04:39.044Z,85.40
2018-02-07T09:05:38.996Z,85.08
2018-02-07T09:06:38.995Z,85.56
2018-02-07T09:07:38.943Z,85.53
2018-02-07T09:08:38.994Z,85.38
2018-02-07T09:09:39.006Z,85.08
2018-02-07T09:10:38.991Z,85.00
2018-02-07T09:11:38.896Z,84.60
2018-02-07T09:12:38.896Z,84.74
2018-02-07T09:13:38.997Z,85.27
2018-02-07T09:14:38.992Z,84.95
2018-02-07T09:15:39.023Z,84.87
2018-02-07T09:16:39.094Z,84.07
2018-02-07T09:17:39.027Z,83.99
2018-02-07T09:18:39.092Z,84.02
2018-02-07T09:19:39.060Z,84.55
2018-02-07T09:20:39.033Z,84.36
2018-02-07T09:21:39.096Z,84.28
2018-02-07T09:22:39.033Z,84.31
2018-02-07T09:23:39.103Z,84.31
2018-02-07T09:24:39.029Z,83.91
2018-02-07T09:25:38.990Z,83.78
2018-02-07T09:26:38.959Z,83.78
2018-02-07T09:27:38.997Z,83.28
2018-02-07T09:28:38.957Z,82.88
2018-02-07T09:29:38.975Z,82.67
2018-02-07T09:30:38.991Z,83.01
2018-02-07T09:31:38.970Z,83.12
2018-02-07T09:32:38.976Z,83.09
2018-02-07T09:33:38.989Z,82.64
2018-02-07T09:34:38.991Z,82.67
2018-02-07T09:35:39.102Z,82.98
2018-02-07T09:36:39.052Z,82.19
2018-02-07T09:37:39.008Z,82.32
2018-02-07T09:38:39.050Z,82.24
2018-02-07T09:39:39.011Z,82.45
2018-02-07T09:40:39.011Z,82.59
2018-02-07T09:41:39.058Z,82.51
2018-02-07T09:42:38.989Z,82.37
2018-02-07T09:43:39.095Z,82.32
2018-02-07T09:44:39.056Z,81.84
2018-02-07T09:45:39.111Z,81.68
2018-02-07T09:46:39.044Z,81.60
2018-02-07T09:47:39.109Z,81.42
2018-02-07T09:48:39.046Z,80.76
2018-02-07T09:49:39.110Z,81.68
2018-02-07T09:50:39.047Z,81.79
2018-02-07T09:51:39.123Z,81.26
2018-02-07T09:52:39.117Z,81.45
2018-02-07T09:53:39.051Z,80.84
2018-02-07T09:54:39.117Z,80.29
2018-02-07T09:55:39.049Z,80.26
2018-02-07T09:56:39.008Z,80.33
2018-02-07T09:57:39.048Z,80.15
2018-02-07T09:58:39.125Z,80.39
2018-02-07T09:59:39.060Z,80.10
2018-02-07T10:00:39.118Z,79.36
2018-02-07T10:01:39.060Z,79.60
2018-02-07T10:02:39.119Z,79.17
2018-02-07T10:03:39.121Z,79.49
2018-02-07T10:04:39.050Z,79.28
2018-02-07T10:05:39.127Z,78.70
2018-02-07T10:06:39.053Z,79.07
2018-02-07T10:07:39.123Z,79.47
2018-02-07T10:08:39.060Z,79.86
2018-02-07T10:09:39.124Z,80.23
2018-02-07T10:10:39.125Z,80.26
2018-02-07T10:11:39.056Z,79.15
2018-02-07T10:12:39.163Z,78.81
2018-02-07T10:13:39.126Z,78.67
2018-02-07T10:14:39.054Z,79.39
2018-02-07T10:15:39.142Z,78.59
2018-02-07T10:16:39.067Z,78.01
2018-02-07T10:17:39.132Z,78.57
2018-02-07T10:18:39.059Z,78.05
2018-02-07T10:19:39.134Z,78.17
2018-02-07T10:20:39.062Z,77.91
2018-02-07T10:21:39.133Z,77.81
2018-02-07T10:22:39.156Z,77.86
2018-02-07T10:23:39.067Z,77.57
2018-02-07T10:24:39.136Z,76.60
2018-02-07T10:25:39.131Z,76.52
2018-02-07T10:26:39.064Z,76.15
2018-02-07T10:27:39.134Z,76.54
2018-02-07T10:28:39.069Z,76.54
2018-02-07T10:29:39.134Z,76.83
2018-02-07T10:30:39.135Z,76.89
2018-02-07T10:31:39.068Z,76.94
2018-02-07T10:32:39.138Z,76.20
2018-02-07T10:33:39.227Z,75.41
2018-02-07T10:34:39.145Z,76.12
2018-02-07T10:35:39.109Z,75.65
2018-02-07T10:36:39.111Z,76.75
2018-02-07T10:37:39.109Z,76.34
2018-02-07T10:38:39.026Z,76.65
2018-02-07T10:39:39.026Z,76.94
2018-02-07T10:40:39.125Z,76.75
2018-02-07T10:41:39.127Z,77.33
2018-02-07T10:42:39.010Z,77.36
2018-02-07T10:43:39.110Z,78.39
2018-02-07T10:44:39.144Z,78.20
2018-02-07T10:45:39.145Z,77.75
2018-02-07T10:46:39.080Z,77.73
2018-02-07T10:47:39.147Z,78.20
2018-02-07T10:48:39.080Z,78.49
2018-02-07T10:49:39.086Z,78.62
2018-02-07T10:50:39.149Z,77.70
2018-02-07T10:51:39.081Z,77.57
2018-02-07T10:52:39.150Z,77.31
2018-02-07T10:53:39.083Z,76.97
2018-02-07T10:54:39.170Z,76.60
2018-02-07T10:55:39.085Z,76.39
2018-02-07T10:56:39.153Z,77.36
2018-02-07T10:57:39.085Z,76.78
2018-02-07T10:58:39.154Z,76.62
2018-02-07T10:59:39.085Z,75.84
2018-02-07T11:00:39.153Z,75.65
2018-02-07T11:01:39.088Z,76.07
2018-02-07T11:02:39.179Z,75.89
2018-02-07T11:03:39.089Z,74.84
2018-02-07T11:04:39.165Z,74.60
2018-02-07T11:05:39.157Z,74.47
2018-02-07T11:06:39.123Z,75.39
2018-02-07T11:07:39.148Z,76.02
2018-02-07T11:08:39.107Z,75.68
2018-02-07T11:09:39.141Z,74.34
2018-02-07T11:10:39.027Z,73.48
2018-02-07T11:11:39.069Z,74.36
2018-02-07T11:12:39.124Z,75.76
2018-02-07T11:13:39.033Z,74.34
2018-02-07T11:14:39.163Z,74.84
2018-02-07T11:15:39.071Z,74.97
2018-02-07T11:16:39.069Z,75.39
2018-02-07T11:17:39.121Z,75.76
2018-02-07T11:18:39.100Z,75.31
2018-02-07T11:19:39.156Z,76.23
2018-02-07T11:20:39.161Z,76.62
2018-02-07T11:21:39.140Z,75.94
2018-02-07T11:22:39.051Z,74.87
2018-02-07T11:23:39.057Z,74.16
2018-02-07T11:24:39.056Z,74.40
2018-02-07T11:25:39.107Z,73.40
2018-02-07T11:26:39.125Z,73.45
2018-02-07T11:27:39.157Z,72.72
2018-02-07T11:28:39.123Z,72.43
2018-02-07T11:29:39.057Z,71.96
2018-02-07T11:30:39.163Z,73.08
2018-02-07T11:31:39.131Z,72.22
2018-02-07T11:32:39.166Z,71.83
2018-02-07T11:33:39.188Z,71.31
2018-02-07T11:34:39.062Z,71.89
2018-02-07T11:35:39.175Z,72.33
2018-02-07T11:36:39.190Z,71.73
2018-02-07T11:37:39.108Z,72.25
2018-02-07T11:38:39.177Z,71.05
2018-02-07T11:39:39.115Z,70.60
2018-02-07T11:40:39.179Z,70.60
2018-02-07T11:41:39.115Z,71.49
2018-02-07T11:42:39.178Z,69.93
2018-02-07T11:43:39.109Z,70.11
2018-02-07T11:44:39.111Z,70.53
2018-02-07T11:45:39.185Z,70.27
2018-02-07T11:46:39.118Z,70.84
2018-02-07T11:47:39.182Z,71.07
2018-02-07T11:48:39.111Z,69.90
2018-02-07T11:49:39.187Z,67.62
2018-02-07T11:50:39.113Z,68.19
2018-02-07T11:51:39.184Z,67.85
2018-02-07T11:52:39.119Z,68.16
2018-02-07T11:53:39.114Z,68.87
2018-02-07T11:54:39.191Z,68.87
2018-02-07T11:55:39.123Z,69.59
2018-02-07T11:56:39.137Z,69.98
2018-02-07T11:57:39.071Z,68.91
2018-02-07T11:58:39.074Z,69.67
2018-02-07T11:59:39.159Z,70.09
2018-02-07T12:00:39.179Z,69.36
2018-02-07T12:01:39.181Z,69.30
2018-02-07T12:02:39.075Z,70.56
2018-02-07T12:03:39.071Z,70.09
2018-02-07T12:04:39.181Z,70.64
2018-02-07T12:05:39.143Z,70.60
2018-02-07T12:06:39.144Z,70.19
2018-02-07T12:07:39.155Z,69.67
2018-02-07T12:08:39.101Z,71.05
2018-02-07T12:09:39.120Z,72.25
2018-02-07T12:10:39.161Z,71.05
2018-02-07T12:11:39.174Z,70.79
2018-02-07T12:12:39.074Z,71.81
2018-02-07T12:13:39.124Z,71.10
2018-02-07T12:14:39.103Z,69.85
2018-02-07T12:15:39.072Z,70.60
2018-02-07T12:16:39.014Z,70.27
2018-02-07T12:17:39.078Z,71.47
2018-02-07T12:18:39.057Z,70.82
2018-02-07T12:19:39.106Z,71.49
2018-02-07T12:20:39.088Z,71.39
2018-02-07T12:21:39.010Z,71.34
2018-02-07T12:22:39.065Z,72.85
2018-02-07T12:23:39.116Z,72.14
2018-02-07T12:24:39.054Z,73.19
2018-02-07T12:25:39.020Z,73.19
2018-02-07T12:26:39.138Z,72.67
2018-02-07T12:27:39.110Z,73.69
2018-02-07T12:28:39.092Z,73.58
2018-02-07T12:29:39.180Z,73.82
2018-02-07T12:30:39.174Z,73.55
2018-02-07T12:31:39.073Z,73.53
2018-02-07T12:32:39.199Z,73.55
2018-02-07T12:33:39.154Z,73.55
2018-02-07T12:34:39.180Z,73.30
2018-02-07T12:35:39.198Z,73.16
2018-02-07T12:36:39.101Z,73.89
2018-02-07T12:37:39.143Z,74.84
2018-02-07T12:38:39.229Z,74.79
2018-02-07T12:39:39.145Z,74.16
2018-02-07T12:40:39.217Z,73.50
2018-02-07T12:41:39.215Z,73.95
2018-02-07T12:42:39.152Z,73.30
2018-02-07T12:43:39.214Z,73.66
2018-02-07T12:44:39.152Z,73.97
2018-02-07T12:45:39.148Z,74.76
2018-02-07T12:46:39.218Z,74.63
2018-02-07T12:47:39.217Z,74.47
2018-02-07T12:48:39.123Z,75.10
2018-02-07T12:49:39.146Z,74.84
2018-02-07T12:50:39.189Z,74.76
2018-02-07T12:51:39.189Z,75.18
2018-02-07T12:52:39.166Z,74.58